Clover, Minnesota
Current Conditions -  °F | °C
As of 12:15 PM on Friday 28 Nov 2014 (Local Time) from KFSE Reporting Station
Overcast Overcast  
Wind Chill: 12°   Ceiling: 4200
Heat Index: 12°   Visibility: 10mi
Dew Point:   Wind: 3mph
Humidity: 79%   Direction: 100°E
Pressure: 29.87"   Gusts: NA
Location:  47.6306°N, 95.3701°W
Report Text: KFSE 281815Z AUTO 10003KT 10SM OVC042 M11/M14 A2987 RMK AO2
Loading
Personal Weather Stations






























Interactive Weather Map New forecast layout! Learn more

10-Day Weather Forecast

Advertisements
Track Severe Weather on mobile